sensor_id;sensor_type;location;lat;lon;timestamp;P1;durP1;ratioP1;P2;durP2;ratioP2
24044;SDS011;26257;49.442;8.422;2023-01-26T00:01:09;49.40;;;22.55;;
24044;SDS011;26257;49.442;8.422;2023-01-26T00:03:36;41.33;;;20.42;;
24044;SDS011;26257;49.442;8.422;2023-01-26T00:06:03;46.50;;;19.80;;
24044;SDS011;26257;49.442;8.422;2023-01-26T00:08:29;47.72;;;20.15;;
24044;SDS011;26257;49.442;8.422;2023-01-26T00:10:55;39.40;;;17.40;;
24044;SDS011;26257;49.442;8.422;2023-01-26T00:13:21;36.03;;;16.00;;
24044;SDS011;26257;49.442;8.422;2023-01-26T00:15:49;40.95;;;17.02;;
24044;SDS011;26257;49.442;8.422;2023-01-26T00:18:14;40.72;;;16.50;;
24044;SDS011;26257;49.442;8.422;2023-01-26T00:20:40;38.88;;;17.25;;
24044;SDS011;26257;49.442;8.422;2023-01-26T00:23:05;43.45;;;19.88;;
24044;SDS011;26257;49.442;8.422;2023-01-26T00:25:32;39.72;;;17.63;;
24044;SDS011;26257;49.442;8.422;2023-01-26T00:27:57;39.80;;;17.63;;
24044;SDS011;26257;49.442;8.422;2023-01-26T00:30:23;38.60;;;17.05;;
24044;SDS011;26257;49.442;8.422;2023-01-26T00:32:48;40.00;;;17.70;;
24044;SDS011;26257;49.442;8.422;2023-01-26T00:35:15;44.30;;;17.83;;
24044;SDS011;26257;49.442;8.422;2023-01-26T00:37:41;41.92;;;18.13;;
24044;SDS011;26257;49.442;8.422;2023-01-26T00:40:07;43.50;;;18.15;;
24044;SDS011;26257;49.442;8.422;2023-01-26T00:42:34;38.65;;;16.58;;
24044;SDS011;26257;49.442;8.422;2023-01-26T00:45:00;43.03;;;17.30;;
24044;SDS011;26257;49.442;8.422;2023-01-26T00:47:25;38.55;;;16.80;;
24044;SDS011;26257;49.442;8.422;2023-01-26T00:49:51;47.83;;;18.25;;
24044;SDS011;26257;49.442;8.422;2023-01-26T00:52:16;37.70;;;16.83;;
24044;SDS011;26257;49.442;8.422;2023-01-26T00:54:42;37.35;;;17.40;;
24044;SDS011;26257;49.442;8.422;2023-01-26T00:57:07;36.85;;;15.70;;
24044;SDS011;26257;49.442;8.422;2023-01-26T00:59:33;41.60;;;18.08;;
24044;SDS011;26257;49.442;8.422;2023-01-26T01:01:58;32.25;;;15.82;;
24044;SDS011;26257;49.442;8.422;2023-01-26T01:04:26;33.55;;;15.85;;
24044;SDS011;26257;49.442;8.422;2023-01-26T01:06:53;33.92;;;15.18;;
24044;SDS011;26257;49.442;8.422;2023-01-26T01:09:19;34.85;;;15.48;;
24044;SDS011;26257;49.442;8.422;2023-01-26T01:11:45;36.90;;;15.15;;
24044;SDS011;26257;49.442;8.422;2023-01-26T01:14:11;35.80;;;15.25;;
24044;SDS011;26257;49.442;8.422;2023-01-26T01:16:37;33.00;;;14.38;;
24044;SDS011;26257;49.442;8.422;2023-01-26T01:19:05;38.17;;;16.40;;
24044;SDS011;26257;49.442;8.422;2023-01-26T01:21:31;39.33;;;15.77;;
24044;SDS011;26257;49.442;8.422;2023-01-26T01:23:57;36.08;;;15.60;;
24044;SDS011;26257;49.442;8.422;2023-01-26T01:26:23;37.65;;;15.70;;
24044;SDS011;26257;49.442;8.422;2023-01-26T01:28:48;37.58;;;16.00;;
24044;SDS011;26257;49.442;8.422;2023-01-26T01:31:18;34.33;;;13.60;;
24044;SDS011;26257;49.442;8.422;2023-01-26T01:33:44;34.33;;;14.63;;
24044;SDS011;26257;49.442;8.422;2023-01-26T01:36:10;31.60;;;14.38;;
24044;SDS011;26257;49.442;8.422;2023-01-26T01:38:37;33.65;;;14.95;;
24044;SDS011;26257;49.442;8.422;2023-01-26T01:41:02;29.38;;;13.80;;
24044;SDS011;26257;49.442;8.422;2023-01-26T01:43:28;30.92;;;14.60;;
24044;SDS011;26257;49.442;8.422;2023-01-26T01:45:54;31.92;;;14.48;;
24044;SDS011;26257;49.442;8.422;2023-01-26T01:49:03;35.63;;;15.55;;
24044;SDS011;26257;49.442;8.422;2023-01-26T01:53:58;32.78;;;14.60;;
24044;SDS011;26257;49.442;8.422;2023-01-26T01:56:32;33.53;;;14.27;;
24044;SDS011;26257;49.442;8.422;2023-01-26T01:59:00;33.53;;;14.80;;
24044;SDS011;26257;49.442;8.422;2023-01-26T02:01:28;29.95;;;14.85;;
24044;SDS011;26257;49.442;8.422;2023-01-26T02:03:55;32.58;;;14.50;;
24044;SDS011;26257;49.442;8.422;2023-01-26T02:06:28;32.08;;;14.25;;
24044;SDS011;26257;49.442;8.422;2023-01-26T02:08:59;29.45;;;12.32;;
24044;SDS011;26257;49.442;8.422;2023-01-26T02:13:50;34.63;;;15.00;;
24044;SDS011;26257;49.442;8.422;2023-01-26T02:16:16;31.88;;;14.15;;
24044;SDS011;26257;49.442;8.422;2023-01-26T02:18:43;26.60;;;12.75;;
24044;SDS011;26257;49.442;8.422;2023-01-26T02:21:10;28.13;;;12.20;;
24044;SDS011;26257;49.442;8.422;2023-01-26T02:23:46;25.85;;;11.80;;
24044;SDS011;26257;49.442;8.422;2023-01-26T02:26:33;29.23;;;12.70;;
24044;SDS011;26257;49.442;8.422;2023-01-26T02:29:00;29.58;;;13.40;;
24044;SDS011;26257;49.442;8.422;2023-01-26T02:31:27;31.75;;;13.23;;
24044;SDS011;26257;49.442;8.422;2023-01-26T02:33:52;24.67;;;11.80;;
24044;SDS011;26257;49.442;8.422;2023-01-26T02:36:19;34.92;;;14.18;;
24044;SDS011;26257;49.442;8.422;2023-01-26T02:39:33;31.42;;;14.10;;
24044;SDS011;26257;49.442;8.422;2023-01-26T02:41:36;30.85;;;13.60;;
24044;SDS011;26257;49.442;8.422;2023-01-26T02:44:21;30.30;;;14.43;;
24044;SDS011;26257;49.442;8.422;2023-01-26T02:46:47;31.27;;;14.02;;
24044;SDS011;26257;49.442;8.422;2023-01-26T02:49:12;31.55;;;13.25;;
24044;SDS011;26257;49.442;8.422;2023-01-26T02:51:56;32.08;;;14.85;;
24044;SDS011;26257;49.442;8.422;2023-01-26T02:54:22;34.83;;;14.13;;
24044;SDS011;26257;49.442;8.422;2023-01-26T02:57:06;33.28;;;15.32;;
24044;SDS011;26257;49.442;8.422;2023-01-26T02:59:31;33.67;;;14.95;;
24044;SDS011;26257;49.442;8.422;2023-01-26T03:01:57;32.85;;;14.43;;
24044;SDS011;26257;49.442;8.422;2023-01-26T03:04:23;33.08;;;15.35;;
24044;SDS011;26257;49.442;8.422;2023-01-26T03:06:48;37.72;;;15.05;;
24044;SDS011;26257;49.442;8.422;2023-01-26T03:09:14;36.47;;;15.88;;
24044;SDS011;26257;49.442;8.422;2023-01-26T03:11:39;37.97;;;15.00;;
24044;SDS011;26257;49.442;8.422;2023-01-26T03:14:08;35.10;;;14.45;;
24044;SDS011;26257;49.442;8.422;2023-01-26T03:16:34;33.63;;;14.77;;
24044;SDS011;26257;49.442;8.422;2023-01-26T03:19:00;39.03;;;17.98;;
24044;SDS011;26257;49.442;8.422;2023-01-26T03:21:28;39.15;;;16.63;;
24044;SDS011;26257;49.442;8.422;2023-01-26T03:24:12;40.05;;;15.80;;
24044;SDS011;26257;49.442;8.422;2023-01-26T03:26:57;37.70;;;15.65;;
24044;SDS011;26257;49.442;8.422;2023-01-26T03:29:42;36.53;;;14.70;;
24044;SDS011;26257;49.442;8.422;2023-01-26T03:32:08;36.58;;;16.65;;
24044;SDS011;26257;49.442;8.422;2023-01-26T03:34:33;34.30;;;15.38;;
24044;SDS011;26257;49.442;8.422;2023-01-26T03:36:58;33.75;;;15.40;;
24044;SDS011;26257;49.442;8.422;2023-01-26T03:39:24;39.10;;;17.15;;
24044;SDS011;26257;49.442;8.422;2023-01-26T03:42:09;39.88;;;16.38;;
24044;SDS011;26257;49.442;8.422;2023-01-26T03:44:53;44.30;;;17.00;;
24044;SDS011;26257;49.442;8.422;2023-01-26T03:47:37;37.38;;;15.82;;
24044;SDS011;26257;49.442;8.422;2023-01-26T03:50:21;33.47;;;16.33;;
24044;SDS011;26257;49.442;8.422;2023-01-26T03:53:14;41.45;;;14.98;;
24044;SDS011;26257;49.442;8.422;2023-01-26T03:56:00;33.33;;;15.15;;
24044;SDS011;26257;49.442;8.422;2023-01-26T03:58:44;32.72;;;14.40;;
24044;SDS011;26257;49.442;8.422;2023-01-26T04:01:10;33.05;;;13.93;;
24044;SDS011;26257;49.442;8.422;2023-01-26T04:03:44;28.63;;;13.32;;
24044;SDS011;26257;49.442;8.422;2023-01-26T04:06:32;28.83;;;12.60;;
24044;SDS011;26257;49.442;8.422;2023-01-26T04:09:16;22.20;;;10.48;;
24044;SDS011;26257;49.442;8.422;2023-01-26T04:11:42;27.58;;;11.48;;
24044;SDS011;26257;49.442;8.422;2023-01-26T04:14:09;27.30;;;11.93;;
24044;SDS011;26257;49.442;8.422;2023-01-26T04:16:55;22.73;;;11.60;;
24044;SDS011;26257;49.442;8.422;2023-01-26T04:32:53;22.90;;;10.85;;
24044;SDS011;26257;49.442;8.422;2023-01-26T04:35:19;26.15;;;10.90;;
24044;SDS011;26257;49.442;8.422;2023-01-26T04:37:44;23.80;;;10.13;;
24044;SDS011;26257;49.442;8.422;2023-01-26T04:40:10;23.65;;;10.30;;
24044;SDS011;26257;49.442;8.422;2023-01-26T04:42:35;23.25;;;9.75;;
24044;SDS011;26257;49.442;8.422;2023-01-26T04:45:01;21.08;;;9.80;;
24044;SDS011;26257;49.442;8.422;2023-01-26T04:47:26;25.73;;;10.23;;
24044;SDS011;26257;49.442;8.422;2023-01-26T04:49:52;22.65;;;9.80;;
24044;SDS011;26257;49.442;8.422;2023-01-26T04:52:17;19.63;;;8.60;;
24044;SDS011;26257;49.442;8.422;2023-01-26T04:54:43;21.00;;;8.98;;
24044;SDS011;26257;49.442;8.422;2023-01-26T04:57:08;19.42;;;8.63;;
24044;SDS011;26257;49.442;8.422;2023-01-26T04:59:33;18.58;;;8.25;;
24044;SDS011;26257;49.442;8.422;2023-01-26T05:01:59;16.27;;;7.40;;
24044;SDS011;26257;49.442;8.422;2023-01-26T05:04:24;17.40;;;7.78;;
24044;SDS011;26257;49.442;8.422;2023-01-26T05:06:50;14.07;;;7.05;;
24044;SDS011;26257;49.442;8.422;2023-01-26T05:09:15;17.42;;;7.78;;
24044;SDS011;26257;49.442;8.422;2023-01-26T05:11:41;15.13;;;6.95;;
24044;SDS011;26257;49.442;8.422;2023-01-26T05:14:06;14.98;;;6.78;;
24044;SDS011;26257;49.442;8.422;2023-01-26T05:16:32;13.68;;;6.60;;
24044;SDS011;26257;49.442;8.422;2023-01-26T05:18:57;15.50;;;6.60;;
24044;SDS011;26257;49.442;8.422;2023-01-26T05:21:23;15.35;;;6.53;;
24044;SDS011;26257;49.442;8.422;2023-01-26T05:23:49;12.68;;;5.68;;
24044;SDS011;26257;49.442;8.422;2023-01-26T05:26:15;13.18;;;6.55;;
24044;SDS011;26257;49.442;8.422;2023-01-26T05:28:40;12.88;;;6.18;;
24044;SDS011;26257;49.442;8.422;2023-01-26T05:31:06;15.02;;;6.07;;
24044;SDS011;26257;49.442;8.422;2023-01-26T05:33:31;10.48;;;5.18;;
24044;SDS011;26257;49.442;8.422;2023-01-26T05:35:56;16.20;;;6.15;;
24044;SDS011;26257;49.442;8.422;2023-01-26T05:38:22;11.18;;;5.68;;
24044;SDS011;26257;49.442;8.422;2023-01-26T05:40:48;15.95;;;7.70;;
24044;SDS011;26257;49.442;8.422;2023-01-26T05:43:13;15.05;;;6.88;;
24044;SDS011;26257;49.442;8.422;2023-01-26T05:45:39;14.65;;;6.75;;
24044;SDS011;26257;49.442;8.422;2023-01-26T05:48:05;16.05;;;6.95;;
24044;SDS011;26257;49.442;8.422;2023-01-26T05:50:30;19.05;;;7.43;;
24044;SDS011;26257;49.442;8.422;2023-01-26T05:52:56;14.85;;;6.65;;
24044;SDS011;26257;49.442;8.422;2023-01-26T05:55:23;15.20;;;6.90;;
24044;SDS011;26257;49.442;8.422;2023-01-26T05:57:48;15.57;;;6.60;;
24044;SDS011;26257;49.442;8.422;2023-01-26T06:00:14;33.83;;;15.98;;
24044;SDS011;26257;49.442;8.422;2023-01-26T06:02:40;28.38;;;12.88;;
24044;SDS011;26257;49.442;8.422;2023-01-26T06:05:05;22.08;;;10.68;;
24044;SDS011;26257;49.442;8.422;2023-01-26T06:07:32;30.73;;;14.32;;
24044;SDS011;26257;49.442;8.422;2023-01-26T06:09:57;90.47;;;40.95;;
24044;SDS011;26257;49.442;8.422;2023-01-26T06:12:23;19.13;;;8.73;;
24044;SDS011;26257;49.442;8.422;2023-01-26T06:14:48;16.77;;;8.20;;
24044;SDS011;26257;49.442;8.422;2023-01-26T06:17:14;18.35;;;8.85;;
24044;SDS011;26257;49.442;8.422;2023-01-26T06:19:41;19.35;;;8.85;;
24044;SDS011;26257;49.442;8.422;2023-01-26T06:22:07;18.17;;;8.85;;
24044;SDS011;26257;49.442;8.422;2023-01-26T06:24:33;17.23;;;8.35;;
24044;SDS011;26257;49.442;8.422;2023-01-26T06:26:59;16.95;;;8.00;;
24044;SDS011;26257;49.442;8.422;2023-01-26T06:29:24;18.63;;;9.50;;
24044;SDS011;26257;49.442;8.422;2023-01-26T06:31:50;20.23;;;9.38;;
24044;SDS011;26257;49.442;8.422;2023-01-26T06:34:15;21.52;;;8.60;;
24044;SDS011;26257;49.442;8.422;2023-01-26T06:36:41;18.58;;;9.02;;
24044;SDS011;26257;49.442;8.422;2023-01-26T06:39:07;20.05;;;9.38;;
24044;SDS011;26257;49.442;8.422;2023-01-26T06:41:35;20.95;;;9.20;;
24044;SDS011;26257;49.442;8.422;2023-01-26T06:44:00;20.45;;;9.52;;
24044;SDS011;26257;49.442;8.422;2023-01-26T06:46:26;19.55;;;9.15;;
24044;SDS011;26257;49.442;8.422;2023-01-26T06:48:51;18.27;;;9.32;;
24044;SDS011;26257;49.442;8.422;2023-01-26T06:53:42;21.95;;;9.77;;
24044;SDS011;26257;49.442;8.422;2023-01-26T06:56:12;22.00;;;9.93;;
24044;SDS011;26257;49.442;8.422;2023-01-26T06:58:40;19.30;;;8.93;;
24044;SDS011;26257;49.442;8.422;2023-01-26T07:01:06;17.45;;;8.77;;
24044;SDS011;26257;49.442;8.422;2023-01-26T07:03:31;20.73;;;9.27;;
24044;SDS011;26257;49.442;8.422;2023-01-26T07:05:57;17.98;;;9.48;;
24044;SDS011;26257;49.442;8.422;2023-01-26T07:08:23;19.15;;;8.52;;
24044;SDS011;26257;49.442;8.422;2023-01-26T07:10:48;18.85;;;9.02;;
24044;SDS011;26257;49.442;8.422;2023-01-26T07:13:14;19.00;;;8.98;;
24044;SDS011;26257;49.442;8.422;2023-01-26T07:15:40;28.08;;;13.15;;
24044;SDS011;26257;49.442;8.422;2023-01-26T07:18:05;36.00;;;16.92;;
24044;SDS011;26257;49.442;8.422;2023-01-26T07:20:31;20.42;;;9.85;;
24044;SDS011;26257;49.442;8.422;2023-01-26T07:22:58;19.80;;;10.25;;
24044;SDS011;26257;49.442;8.422;2023-01-26T07:25:24;41.50;;;21.30;;
24044;SDS011;26257;49.442;8.422;2023-01-26T07:27:56;56.42;;;28.38;;
24044;SDS011;26257;49.442;8.422;2023-01-26T07:30:23;24.83;;;12.85;;
24044;SDS011;26257;49.442;8.422;2023-01-26T07:32:49;15.38;;;8.10;;
24044;SDS011;26257;49.442;8.422;2023-01-26T07:35:14;17.25;;;9.52;;
24044;SDS011;26257;49.442;8.422;2023-01-26T07:37:41;19.77;;;9.15;;
24044;SDS011;26257;49.442;8.422;2023-01-26T07:40:06;16.92;;;8.32;;
24044;SDS011;26257;49.442;8.422;2023-01-26T07:42:32;18.92;;;8.88;;
24044;SDS011;26257;49.442;8.422;2023-01-26T07:44:58;16.67;;;8.00;;
24044;SDS011;26257;49.442;8.422;2023-01-26T07:47:24;16.55;;;8.27;;
24044;SDS011;26257;49.442;8.422;2023-01-26T07:49:49;14.60;;;7.53;;
24044;SDS011;26257;49.442;8.422;2023-01-26T07:52:15;17.17;;;8.18;;
24044;SDS011;26257;49.442;8.422;2023-01-26T07:54:41;15.43;;;7.55;;
24044;SDS011;26257;49.442;8.422;2023-01-26T07:57:06;16.23;;;8.35;;
24044;SDS011;26257;49.442;8.422;2023-01-26T07:59:32;14.98;;;8.30;;
24044;SDS011;26257;49.442;8.422;2023-01-26T08:01:58;14.55;;;7.45;;
24044;SDS011;26257;49.442;8.422;2023-01-26T08:04:23;20.05;;;8.35;;
24044;SDS011;26257;49.442;8.422;2023-01-26T08:06:52;14.45;;;8.15;;
24044;SDS011;26257;49.442;8.422;2023-01-26T08:09:17;16.35;;;8.10;;
24044;SDS011;26257;49.442;8.422;2023-01-26T08:11:43;15.98;;;7.75;;
24044;SDS011;26257;49.442;8.422;2023-01-26T08:14:08;16.02;;;7.40;;
24044;SDS011;26257;49.442;8.422;2023-01-26T08:16:34;16.17;;;7.75;;
24044;SDS011;26257;49.442;8.422;2023-01-26T08:18:59;13.95;;;6.97;;
24044;SDS011;26257;49.442;8.422;2023-01-26T08:21:25;12.43;;;6.90;;
24044;SDS011;26257;49.442;8.422;2023-01-26T08:23:50;15.63;;;7.40;;
24044;SDS011;26257;49.442;8.422;2023-01-26T08:26:16;11.75;;;6.47;;
24044;SDS011;26257;49.442;8.422;2023-01-26T08:28:44;13.60;;;7.35;;
24044;SDS011;26257;49.442;8.422;2023-01-26T08:31:12;10.85;;;5.80;;
24044;SDS011;26257;49.442;8.422;2023-01-26T08:33:42;10.10;;;6.07;;
24044;SDS011;26257;49.442;8.422;2023-01-26T08:36:10;15.52;;;6.63;;
24044;SDS011;26257;49.442;8.422;2023-01-26T08:38:37;11.20;;;6.85;;
24044;SDS011;26257;49.442;8.422;2023-01-26T08:41:02;11.60;;;6.55;;
24044;SDS011;26257;49.442;8.422;2023-01-26T08:43:30;15.30;;;6.93;;
24044;SDS011;26257;49.442;8.422;2023-01-26T08:45:56;11.55;;;6.75;;
24044;SDS011;26257;49.442;8.422;2023-01-26T08:48:21;10.85;;;6.13;;
24044;SDS011;26257;49.442;8.422;2023-01-26T08:50:47;12.27;;;6.18;;
24044;SDS011;26257;49.442;8.422;2023-01-26T08:53:13;11.75;;;6.10;;
24044;SDS011;26257;49.442;8.422;2023-01-26T08:55:38;11.80;;;6.63;;
24044;SDS011;26257;49.442;8.422;2023-01-26T08:58:04;10.77;;;6.28;;
24044;SDS011;26257;49.442;8.422;2023-01-26T09:00:29;11.25;;;5.72;;
24044;SDS011;26257;49.442;8.422;2023-01-26T09:02:59;10.48;;;5.93;;
24044;SDS011;26257;49.442;8.422;2023-01-26T09:05:33;10.57;;;5.97;;
24044;SDS011;26257;49.442;8.422;2023-01-26T09:08:02;20.05;;;11.00;;
24044;SDS011;26257;49.442;8.422;2023-01-26T09:10:33;9.32;;;5.03;;
24044;SDS011;26257;49.442;8.422;2023-01-26T09:13:03;9.23;;;5.38;;
24044;SDS011;26257;49.442;8.422;2023-01-26T09:15:29;9.05;;;4.85;;
24044;SDS011;26257;49.442;8.422;2023-01-26T09:17:55;9.43;;;4.95;;
24044;SDS011;26257;49.442;8.422;2023-01-26T09:20:20;8.05;;;4.20;;
24044;SDS011;26257;49.442;8.422;2023-01-26T09:22:46;9.15;;;4.72;;
24044;SDS011;26257;49.442;8.422;2023-01-26T09:25:12;9.25;;;4.82;;
24044;SDS011;26257;49.442;8.422;2023-01-26T09:27:38;8.52;;;4.68;;
24044;SDS011;26257;49.442;8.422;2023-01-26T09:30:05;9.38;;;4.32;;
24044;SDS011;26257;49.442;8.422;2023-01-26T09:32:33;7.70;;;4.78;;
24044;SDS011;26257;49.442;8.422;2023-01-26T09:34:58;10.02;;;4.47;;
24044;SDS011;26257;49.442;8.422;2023-01-26T09:37:24;11.25;;;4.70;;
24044;SDS011;26257;49.442;8.422;2023-01-26T09:39:50;10.27;;;4.22;;
24044;SDS011;26257;49.442;8.422;2023-01-26T09:42:19;7.32;;;4.55;;
24044;SDS011;26257;49.442;8.422;2023-01-26T09:50:49;8.75;;;3.78;;
24044;SDS011;26257;49.442;8.422;2023-01-26T09:53:26;8.00;;;4.22;;
24044;SDS011;26257;49.442;8.422;2023-01-26T09:55:58;8.70;;;4.88;;
24044;SDS011;26257;49.442;8.422;2023-01-26T09:58:28;8.07;;;4.35;;
24044;SDS011;26257;49.442;8.422;2023-01-26T10:01:00;10.40;;;4.82;;
24044;SDS011;26257;49.442;8.422;2023-01-26T10:03:35;8.45;;;4.50;;
24044;SDS011;26257;49.442;8.422;2023-01-26T10:06:26;9.00;;;4.70;;
24044;SDS011;26257;49.442;8.422;2023-01-26T10:08:56;7.68;;;4.35;;
24044;SDS011;26257;49.442;8.422;2023-01-26T10:11:31;7.78;;;4.38;;
24044;SDS011;26257;49.442;8.422;2023-01-26T10:14:13;9.15;;;4.00;;
24044;SDS011;26257;49.442;8.422;2023-01-26T10:16:49;8.23;;;4.80;;
24044;SDS011;26257;49.442;8.422;2023-01-26T10:43:16;10.07;;;5.80;;
24044;SDS011;26257;49.442;8.422;2023-01-26T10:49:16;10.77;;;5.55;;
24044;SDS011;26257;49.442;8.422;2023-01-26T10:52:25;9.48;;;5.05;;
24044;SDS011;26257;49.442;8.422;2023-01-26T10:55:11;11.10;;;5.07;;
24044;SDS011;26257;49.442;8.422;2023-01-26T10:57:49;9.70;;;4.50;;
24044;SDS011;26257;49.442;8.422;2023-01-26T11:00:56;7.55;;;4.25;;
24044;SDS011;26257;49.442;8.422;2023-01-26T11:03:22;11.07;;;5.72;;
24044;SDS011;26257;49.442;8.422;2023-01-26T11:06:16;9.50;;;5.35;;
24044;SDS011;26257;49.442;8.422;2023-01-26T11:08:43;9.73;;;4.90;;
24044;SDS011;26257;49.442;8.422;2023-01-26T11:11:26;14.60;;;6.22;;
24044;SDS011;26257;49.442;8.422;2023-01-26T11:25:53;20.77;;;10.18;;
24044;SDS011;26257;49.442;8.422;2023-01-26T11:31:13;17.63;;;7.45;;
24044;SDS011;26257;49.442;8.422;2023-01-26T11:42:00;18.08;;;8.48;;
24044;SDS011;26257;49.442;8.422;2023-01-26T11:47:26;15.98;;;8.10;;
24044;SDS011;26257;49.442;8.422;2023-01-26T11:50:25;17.17;;;8.32;;
24044;SDS011;26257;49.442;8.422;2023-01-26T11:53:15;15.80;;;8.50;;
24044;SDS011;26257;49.442;8.422;2023-01-26T11:56:09;15.82;;;8.13;;
24044;SDS011;26257;49.442;8.422;2023-01-26T11:58:52;13.52;;;7.72;;
24044;SDS011;26257;49.442;8.422;2023-01-26T12:01:24;16.15;;;8.95;;
24044;SDS011;26257;49.442;8.422;2023-01-26T12:03:55;17.27;;;8.77;;
24044;SDS011;26257;49.442;8.422;2023-01-26T12:06:27;14.57;;;7.95;;
24044;SDS011;26257;49.442;8.422;2023-01-26T12:09:01;18.15;;;9.00;;
24044;SDS011;26257;49.442;8.422;2023-01-26T12:12:07;15.95;;;8.68;;
24044;SDS011;26257;49.442;8.422;2023-01-26T12:14:47;16.38;;;8.27;;
24044;SDS011;26257;49.442;8.422;2023-01-26T12:20:00;10.65;;;6.60;;
24044;SDS011;26257;49.442;8.422;2023-01-26T12:25:38;13.52;;;7.78;;
24044;SDS011;26257;49.442;8.422;2023-01-26T12:33:51;14.88;;;8.15;;
24044;SDS011;26257;49.442;8.422;2023-01-26T12:36:23;14.80;;;7.80;;
24044;SDS011;26257;49.442;8.422;2023-01-26T12:44:49;15.63;;;8.75;;
24044;SDS011;26257;49.442;8.422;2023-01-26T12:47:09;15.38;;;8.13;;
24044;SDS011;26257;49.442;8.422;2023-01-26T12:49:42;14.98;;;8.18;;
24044;SDS011;26257;49.442;8.422;2023-01-26T12:57:55;20.02;;;9.88;;
24044;SDS011;26257;49.442;8.422;2023-01-26T13:00:27;20.73;;;10.57;;
24044;SDS011;26257;49.442;8.422;2023-01-26T13:02:56;18.25;;;9.73;;
24044;SDS011;26257;49.442;8.422;2023-01-26T13:05:32;22.08;;;11.07;;
24044;SDS011;26257;49.442;8.422;2023-01-26T13:10:54;18.33;;;9.05;;
24044;SDS011;26257;49.442;8.422;2023-01-26T13:15:45;20.02;;;10.77;;
24044;SDS011;26257;49.442;8.422;2023-01-26T13:18:15;21.27;;;11.07;;
24044;SDS011;26257;49.442;8.422;2023-01-26T13:20:42;19.33;;;9.98;;
24044;SDS011;26257;49.442;8.422;2023-01-26T13:23:42;69.68;;;36.88;;
24044;SDS011;26257;49.442;8.422;2023-01-26T13:28:36;47.58;;;25.80;;
24044;SDS011;26257;49.442;8.422;2023-01-26T13:31:02;20.88;;;10.68;;
24044;SDS011;26257;49.442;8.422;2023-01-26T13:33:30;18.55;;;10.02;;
24044;SDS011;26257;49.442;8.422;2023-01-26T13:35:56;25.73;;;13.20;;
24044;SDS011;26257;49.442;8.422;2023-01-26T13:38:32;22.98;;;11.57;;
24044;SDS011;26257;49.442;8.422;2023-01-26T13:41:02;26.70;;;13.48;;
24044;SDS011;26257;49.442;8.422;2023-01-26T13:48:35;24.13;;;11.40;;
24044;SDS011;26257;49.442;8.422;2023-01-26T13:51:03;18.63;;;10.82;;
24044;SDS011;26257;49.442;8.422;2023-01-26T13:53:37;23.27;;;12.10;;
24044;SDS011;26257;49.442;8.422;2023-01-26T13:56:35;25.45;;;12.38;;
24044;SDS011;26257;49.442;8.422;2023-01-26T14:01:45;21.50;;;11.75;;
24044;SDS011;26257;49.442;8.422;2023-01-26T14:04:16;23.40;;;12.20;;
24044;SDS011;26257;49.442;8.422;2023-01-26T14:09:49;24.60;;;12.25;;
24044;SDS011;26257;49.442;8.422;2023-01-26T14:12:17;22.30;;;12.00;;
24044;SDS011;26257;49.442;8.422;2023-01-26T14:14:49;22.40;;;12.20;;
24044;SDS011;26257;49.442;8.422;2023-01-26T14:17:24;33.50;;;15.98;;
24044;SDS011;26257;49.442;8.422;2023-01-26T14:19:56;30.55;;;14.30;;
24044;SDS011;26257;49.442;8.422;2023-01-26T14:22:24;27.52;;;12.07;;
24044;SDS011;26257;49.442;8.422;2023-01-26T14:24:53;27.23;;;12.35;;
24044;SDS011;26257;49.442;8.422;2023-01-26T14:27:29;26.10;;;11.75;;
24044;SDS011;26257;49.442;8.422;2023-01-26T14:30:26;23.70;;;12.68;;
24044;SDS011;26257;49.442;8.422;2023-01-26T14:35:30;27.10;;;12.73;;
24044;SDS011;26257;49.442;8.422;2023-01-26T14:40:49;31.98;;;13.93;;
24044;SDS011;26257;49.442;8.422;2023-01-26T14:43:17;30.88;;;12.85;;
24044;SDS011;26257;49.442;8.422;2023-01-26T14:46:03;28.73;;;12.52;;
24044;SDS011;26257;49.442;8.422;2023-01-26T14:48:38;25.40;;;12.15;;
24044;SDS011;26257;49.442;8.422;2023-01-26T14:51:21;26.92;;;12.50;;
24044;SDS011;26257;49.442;8.422;2023-01-26T14:53:59;28.25;;;12.75;;
24044;SDS011;26257;49.442;8.422;2023-01-26T14:56:36;24.85;;;12.82;;
24044;SDS011;26257;49.442;8.422;2023-01-26T14:59:04;27.30;;;11.85;;
24044;SDS011;26257;49.442;8.422;2023-01-26T15:01:32;30.38;;;13.45;;
24044;SDS011;26257;49.442;8.422;2023-01-26T15:04:04;36.78;;;18.55;;
24044;SDS011;26257;49.442;8.422;2023-01-26T15:06:47;29.08;;;13.88;;
24044;SDS011;26257;49.442;8.422;2023-01-26T15:09:19;27.23;;;12.70;;
24044;SDS011;26257;49.442;8.422;2023-01-26T15:11:52;31.42;;;14.52;;
24044;SDS011;26257;49.442;8.422;2023-01-26T15:19:55;29.85;;;14.00;;
24044;SDS011;26257;49.442;8.422;2023-01-26T15:22:21;27.73;;;13.30;;
24044;SDS011;26257;49.442;8.422;2023-01-26T15:25:03;54.22;;;26.50;;
24044;SDS011;26257;49.442;8.422;2023-01-26T15:27:33;34.72;;;16.73;;
24044;SDS011;26257;49.442;8.422;2023-01-26T15:30:00;32.00;;;16.13;;
24044;SDS011;26257;49.442;8.422;2023-01-26T15:32:36;32.67;;;14.73;;
24044;SDS011;26257;49.442;8.422;2023-01-26T15:37:59;34.13;;;15.50;;
24044;SDS011;26257;49.442;8.422;2023-01-26T15:40:27;29.10;;;14.15;;
24044;SDS011;26257;49.442;8.422;2023-01-26T15:45:35;31.33;;;13.25;;
24044;SDS011;26257;49.442;8.422;2023-01-26T15:48:03;27.77;;;14.30;;
24044;SDS011;26257;49.442;8.422;2023-01-26T15:50:28;30.45;;;13.63;;
24044;SDS011;26257;49.442;8.422;2023-01-26T15:52:54;32.30;;;14.48;;
24044;SDS011;26257;49.442;8.422;2023-01-26T15:55:20;28.85;;;13.30;;
24044;SDS011;26257;49.442;8.422;2023-01-26T15:57:49;32.53;;;14.57;;
24044;SDS011;26257;49.442;8.422;2023-01-26T16:00:15;35.42;;;16.13;;
24044;SDS011;26257;49.442;8.422;2023-01-26T16:02:41;34.60;;;14.82;;
24044;SDS011;26257;49.442;8.422;2023-01-26T16:05:10;27.73;;;13.02;;
24044;SDS011;26257;49.442;8.422;2023-01-26T16:07:39;30.98;;;13.43;;
24044;SDS011;26257;49.442;8.422;2023-01-26T16:10:04;24.90;;;12.43;;
24044;SDS011;26257;49.442;8.422;2023-01-26T16:12:30;31.88;;;13.80;;
24044;SDS011;26257;49.442;8.422;2023-01-26T16:14:55;25.10;;;12.68;;
24044;SDS011;26257;49.442;8.422;2023-01-26T16:17:24;28.50;;;13.55;;
24044;SDS011;26257;49.442;8.422;2023-01-26T16:19:51;27.25;;;12.25;;
24044;SDS011;26257;49.442;8.422;2023-01-26T16:22:17;27.42;;;12.75;;
24044;SDS011;26257;49.442;8.422;2023-01-26T16:24:43;24.98;;;11.70;;
24044;SDS011;26257;49.442;8.422;2023-01-26T16:27:09;29.23;;;12.02;;
24044;SDS011;26257;49.442;8.422;2023-01-26T16:29:35;24.30;;;12.15;;
24044;SDS011;26257;49.442;8.422;2023-01-26T16:32:00;50.53;;;21.10;;
24044;SDS011;26257;49.442;8.422;2023-01-26T16:34:26;61.15;;;28.63;;
24044;SDS011;26257;49.442;8.422;2023-01-26T16:36:53;31.17;;;14.40;;
24044;SDS011;26257;49.442;8.422;2023-01-26T16:39:21;25.80;;;12.18;;
24044;SDS011;26257;49.442;8.422;2023-01-26T16:41:46;19.83;;;10.80;;
24044;SDS011;26257;49.442;8.422;2023-01-26T16:44:13;20.23;;;9.98;;
24044;SDS011;26257;49.442;8.422;2023-01-26T16:46:41;22.45;;;11.55;;
24044;SDS011;26257;49.442;8.422;2023-01-26T16:49:10;21.30;;;10.70;;
24044;SDS011;26257;49.442;8.422;2023-01-26T16:51:38;17.42;;;10.00;;
24044;SDS011;26257;49.442;8.422;2023-01-26T16:54:04;18.98;;;10.07;;
24044;SDS011;26257;49.442;8.422;2023-01-26T16:56:29;16.80;;;10.23;;
24044;SDS011;26257;49.442;8.422;2023-01-26T16:58:56;17.30;;;8.50;;
24044;SDS011;26257;49.442;8.422;2023-01-26T17:03:53;16.98;;;9.27;;